WXM80 ListenWXM80 Stop

You find our weather info also at:

UK Metoffice

WeatherCloud

Weather Underground

Northeastern Weather Network

AWEKAS

Citizen Weather Observer Program (CWOP)

HAMweather, WeatherForYou, PWS Weather


Weather Underground History page Text

Daily Summary for February 25, 2017 Units:  Both    English   Metric
« Previous Day
Next Day »
Daily Weekly Monthly Yearly Custom
  High: Low: Average:
Temperature: 66.6 °F /  19.2 °C 43.5 °F /  6.4 °C 56.7 °F /  13.7 °C
Dew Point: 59.8 °F /  15.4 °C 40.2 °F /  4.6 °C 54 °F /  12.2 °C
Humidity: 98 % 77 % 91 %
Wind Speed: 11.9 mph /  19.2 km/h - 4.4 mph /  7.1 km/h
Wind Gust: 21.9 mph /  35.2 km/h - -
Wind:- - SSW
Pressure: 29.83 in /  1010 hPa 29.44 in /  996.8 hPa -
Precipitation: 0.00 in /  0 mm    
Historical Graphs
 
 
Tabular Data for February 25, 2017
Time Temperature Dew Point Pressure Wind Wind Speed Wind Gust Humidity Rainfall Rate (Hourly)
00:04 56.3 °F /  13.5 °C 54.9 °F /  12.7 °C 29.83 in /  1010 hPa SW 3.2 mph /  5.1 km/h 9.2 mph /  14.8 km/h 95 % 0.00 in /  0 mm
00:09 56.2 °F /  13.4 °C 54.8 °F /  12.7 °C 29.83 in /  1010 hPa South 2.4 mph /  3.9 km/h 6.9 mph /  11.1 km/h 95 % 0.00 in /  0 mm
00:14 56.1 °F /  13.4 °C 54.7 °F /  12.6 °C 29.83 in /  1010 hPa South 2.2 mph /  3.5 km/h 6.9 mph /  11.1 km/h 95 % 0.00 in /  0 mm
00:19 56.0 °F /  13.3 °C 54.6 °F /  12.6 °C 29.83 in /  1010 hPa South 3.0 mph /  4.8 km/h 5.8 mph /  9.3 km/h 95 % 0.00 in /  0 mm
00:24 55.9 °F /  13.3 °C 54.5 °F /  12.5 °C 29.82 in /  1009.7 hPa SSW 3.7 mph /  6 km/h 6.9 mph /  11.1 km/h 95 % 0.00 in /  0 mm
00:29 55.8 °F /  13.2 °C 54.4 °F /  12.4 °C 29.82 in /  1009.7 hPa SSW 3.3 mph /  5.3 km/h 8.1 mph /  13 km/h 95 % 0.00 in /  0 mm
00:34 55.7 °F /  13.2 °C 54.3 °F /  12.4 °C 29.82 in /  1009.7 hPa SW 3.5 mph /  5.6 km/h 8.1 mph /  13 km/h 95 % 0.00 in /  0 mm
00:39 55.7 °F /  13.2 °C 54.3 °F /  12.4 °C 29.82 in /  1009.7 hPa South 2.3 mph /  3.7 km/h 5.8 mph /  9.3 km/h 95 % 0.00 in /  0 mm
00:44 55.6 °F /  13.1 °C 54.2 °F /  12.3 °C 29.82 in /  1009.7 hPa South 2.8 mph /  4.5 km/h 5.8 mph /  9.3 km/h 95 % 0.00 in /  0 mm
00:49 55.6 °F /  13.1 °C 54.2 °F /  12.3 °C 29.82 in /  1009.7 hPa South 3.1 mph /  5 km/h 6.9 mph /  11.1 km/h 95 % 0.00 in /  0 mm
00:55 55.5 °F /  13.1 °C 54.1 °F /  12.3 °C 29.82 in /  1009.7 hPa South 4.1 mph /  6.6 km/h 5.8 mph /  9.3 km/h 95 % 0.00 in /  0 mm
01:00 55.5 °F /  13.1 °C 54.1 °F /  12.3 °C 29.82 in /  1009.7 hPa South 3.1 mph /  5 km/h 4.6 mph /  7.4 km/h 95 % 0.00 in /  0 mm
01:05 55.5 °F /  13.1 °C 54.1 °F /  12.3 °C 29.82 in /  1009.7 hPa SSW 3.7 mph /  6 km/h 6.0 mph /  9.7 km/h 95 % 0.00 in /  0 mm
01:10 55.5 °F /  13.1 °C 54.4 °F /  12.4 °C 29.82 in /  1009.7 hPa SSW 2.1 mph /  3.4 km/h 6.9 mph /  11.1 km/h 96 % 0.00 in /  0 mm
01:15 55.5 °F /  13.1 °C 54.4 °F /  12.4 °C 29.82 in /  1009.7 hPa SSW 2.0 mph /  3.2 km/h 5.8 mph /  9.3 km/h 96 % 0.00 in /  0 mm
01:20 55.6 °F /  13.1 °C 54.5 °F /  12.5 °C 29.82 in /  1009.7 hPa SSW 1.2 mph /  1.9 km/h 3.5 mph /  5.6 km/h 96 % 0.00 in /  0 mm
01:25 55.6 °F /  13.1 °C 54.5 °F /  12.5 °C 29.82 in /  1009.7 hPa SSW 1.6 mph /  2.6 km/h 4.6 mph /  7.4 km/h 96 % 0.00 in /  0 mm
01:30 55.6 °F /  13.1 °C 54.5 °F /  12.5 °C 29.82 in /  1009.7 hPa South 2.8 mph /  4.5 km/h 3.5 mph /  5.6 km/h 96 % 0.00 in /  0 mm
01:35 55.6 °F /  13.1 °C 54.5 °F /  12.5 °C 29.82 in /  1009.7 hPa SW 3.0 mph /  4.8 km/h 6.9 mph /  11.1 km/h 96 % 0.00 in /  0 mm
01:40 55.5 °F /  13.1 °C 54.4 °F /  12.4 °C 29.81 in /  1009.4 hPa SSW 4.7 mph /  7.6 km/h 8.1 mph /  13 km/h 96 % 0.00 in /  0 mm
01:45 55.5 °F /  13.1 °C 54.4 °F /  12.4 °C 29.81 in /  1009.4 hPa SSW 3.5 mph /  5.6 km/h 6.9 mph /  11.1 km/h 96 % 0.00 in /  0 mm
01:50 55.5 °F /  13.1 °C 54.4 °F /  12.4 °C 29.81 in /  1009.4 hPa South 5.4 mph /  8.7 km/h 7.0 mph /  11.3 km/h 96 % 0.00 in /  0 mm
01:55 55.6 °F /  13.1 °C 54.5 °F /  12.5 °C 29.81 in /  1009.4 hPa South 3.5 mph /  5.6 km/h 6.9 mph /  11.1 km/h 96 % 0.00 in /  0 mm
02:00 55.6 °F /  13.1 °C 54.5 °F /  12.5 °C 29.81 in /  1009.4 hPa South 2.9 mph /  4.7 km/h 8.0 mph /  12.9 km/h 96 % 0.00 in /  0 mm
02:05 55.6 °F /  13.1 °C 54.5 °F /  12.5 °C 29.81 in /  1009.4 hPa South 2.9 mph /  4.7 km/h 5.8 mph /  9.3 km/h 96 % 0.00 in /  0 mm
02:10 55.7 °F /  13.2 °C 54.6 °F /  12.6 °C 29.81 in /  1009.4 hPa South 2.1 mph /  3.4 km/h 4.6 mph /  7.4 km/h 96 % 0.00 in /  0 mm
02:15 55.8 °F /  13.2 °C 54.7 °F /  12.6 °C 29.80 in /  1009 hPa South 3.2 mph /  5.1 km/h 4.6 mph /  7.4 km/h 96 % 0.00 in /  0 mm
02:20 55.8 °F /  13.2 °C 54.7 °F /  12.6 °C 29.80 in /  1009 hPa South 2.6 mph /  4.2 km/h 4.6 mph /  7.4 km/h 96 % 0.00 in /  0 mm
02:25 55.7 °F /  13.2 °C 54.6 °F /  12.6 °C 29.80 in /  1009 hPa SSW 2.0 mph /  3.2 km/h 4.6 mph /  7.4 km/h 96 % 0.00 in /  0 mm
02:30 55.6 °F /  13.1 °C 54.5 °F /  12.5 °C 29.80 in /  1009 hPa South 2.0 mph /  3.2 km/h 3.5 mph /  5.6 km/h 96 % 0.00 in /  0 mm
02:35 55.6 °F /  13.1 °C 54.5 °F /  12.5 °C 29.80 in /  1009 hPa SSW 1.2 mph /  1.9 km/h 3.5 mph /  5.6 km/h 96 % 0.00 in /  0 mm
02:40 55.5 °F /  13.1 °C 54.4 °F /  12.4 °C 29.80 in /  1009 hPa South 2.3 mph /  3.7 km/h 3.5 mph /  5.6 km/h 96 % 0.00 in /  0 mm
02:45 55.5 °F /  13.1 °C 54.4 °F /  12.4 °C 29.80 in /  1009 hPa SSE 4.2 mph /  6.8 km/h 8.1 mph /  13 km/h 96 % 0.00 in /  0 mm
02:50 55.5 °F /  13.1 °C 54.4 °F /  12.4 °C 29.80 in /  1009 hPa SSW 3.8 mph /  6.1 km/h 5.8 mph /  9.3 km/h 96 % 0.00 in /  0 mm
02:56 55.6 °F /  13.1 °C 54.5 °F /  12.5 °C 29.80 in /  1009 hPa South 3.1 mph /  5 km/h 8.1 mph /  13 km/h 96 % 0.00 in /  0 mm
03:01 55.7 °F /  13.2 °C 54.6 °F /  12.6 °C 29.80 in /  1009 hPa SSW 3.0 mph /  4.8 km/h 9.2 mph /  14.8 km/h 96 % 0.00 in /  0 mm
03:06 55.8 °F /  13.2 °C 54.7 °F /  12.6 °C 29.80 in /  1009 hPa South 2.1 mph /  3.4 km/h 5.8 mph /  9.3 km/h 96 % 0.00 in /  0 mm
03:11 55.9 °F /  13.3 °C 54.8 °F /  12.7 °C 29.80 in /  1009 hPa South 2.7 mph /  4.3 km/h 4.0 mph /  6.4 km/h 96 % 0.00 in /  0 mm
03:16 55.9 °F /  13.3 °C 54.8 °F /  12.7 °C 29.80 in /  1009 hPa SSW 3.3 mph /  5.3 km/h 9.0 mph /  14.5 km/h 96 % 0.00 in /  0 mm
03:21 55.9 °F /  13.3 °C 54.8 °F /  12.7 °C 29.80 in /  1009 hPa South 2.9 mph /  4.7 km/h 4.6 mph /  7.4 km/h 96 % 0.00 in /  0 mm
03:26 55.9 °F /  13.3 °C 54.8 °F /  12.7 °C 29.80 in /  1009 hPa South 1.4 mph /  2.3 km/h 3.5 mph /  5.6 km/h 96 % 0.00 in /  0 mm
03:31 55.9 °F /  13.3 °C 54.8 °F /  12.7 °C 29.80 in /  1009 hPa SSW 3.0 mph /  4.8 km/h 9.2 mph /  14.8 km/h 96 % 0.00 in /  0 mm
03:36 55.8 °F /  13.2 °C 54.7 °F /  12.6 °C 29.80 in /  1009 hPa South 1.7 mph /  2.7 km/h 5.8 mph /  9.3 km/h 96 % 0.00 in /  0 mm
03:41 55.7 °F /  13.2 °C 54.6 °F /  12.6 °C 29.79 in /  1008.7 hPa South 3.4 mph /  5.5 km/h 8.1 mph /  13 km/h 96 % 0.00 in /  0 mm
03:46 55.7 °F /  13.2 °C 54.6 °F /  12.6 °C 29.79 in /  1008.7 hPa SSW 5.6 mph /  9 km/h 8.1 mph /  13 km/h 96 % 0.00 in /  0 mm
03:51 55.6 °F /  13.1 °C 54.5 °F /  12.5 °C 29.79 in /  1008.7 hPa SSW 3.7 mph /  6 km/h 6.9 mph /  11.1 km/h 96 % 0.00 in /  0 mm
03:56 55.6 °F /  13.1 °C 54.5 °F /  12.5 °C 29.78 in /  1008.4 hPa South 5.2 mph /  8.4 km/h 6.9 mph /  11.1 km/h 96 % 0.00 in /  0 mm
04:01 55.5 °F /  13.1 °C 54.4 °F /  12.4 °C 29.78 in /  1008.4 hPa South 4.6 mph /  7.4 km/h 5.8 mph /  9.3 km/h 96 % 0.00 in /  0 mm
04:06 55.4 °F /  13 °C 54.3 °F /  12.4 °C 29.78 in /  1008.4 hPa SSW 5.1 mph /  8.2 km/h 8.1 mph /  13 km/h 96 % 0.00 in /  0 mm
04:11 55.4 °F /  13 °C 54.3 °F /  12.4 °C 29.78 in /  1008.4 hPa South 4.7 mph /  7.6 km/h 8.1 mph /  13 km/h 96 % 0.00 in /  0 mm
04:16 55.4 °F /  13 °C 54.3 °F /  12.4 °C 29.78 in /  1008.4 hPa South 4.0 mph /  6.4 km/h 5.8 mph /  9.3 km/h 96 % 0.00 in /  0 mm
04:21 55.5 °F /  13.1 °C 54.4 °F /  12.4 °C 29.78 in /  1008.4 hPa SSW 4.7 mph /  7.6 km/h 6.9 mph /  11.1 km/h 96 % 0.00 in /  0 mm
04:26 55.6 °F /  13.1 °C 54.8 °F /  12.7 °C 29.78 in /  1008.4 hPa SSW 5.4 mph /  8.7 km/h 9.2 mph /  14.8 km/h 97 % 0.00 in /  0 mm
04:31 55.7 °F /  13.2 °C 54.9 °F /  12.7 °C 29.77 in /  1008 hPa South 4.8 mph /  7.7 km/h 8.1 mph /  13 km/h 97 % 0.00 in /  0 mm
04:36 55.6 °F /  13.1 °C 54.8 °F /  12.7 °C 29.77 in /  1008 hPa SSW 4.6 mph /  7.4 km/h 6.9 mph /  11.1 km/h 97 % 0.00 in /  0 mm
04:42 55.5 °F /  13.1 °C 54.7 °F /  12.6 °C 29.77 in /  1008 hPa SSE 4.8 mph /  7.7 km/h 5.8 mph /  9.3 km/h 97 % 0.00 in /  0 mm
04:47 55.4 °F /  13 °C 54.3 °F /  12.4 °C 29.77 in /  1008 hPa South 2.4 mph /  3.9 km/h 5.8 mph /  9.3 km/h 96 % 0.00 in /  0 mm
04:52 55.3 °F /  12.9 °C 54.2 °F /  12.3 °C 29.77 in /  1008 hPa SW 4.8 mph /  7.7 km/h 6.9 mph /  11.1 km/h 96 % 0.00 in /  0 mm
04:57 55.2 °F /  12.9 °C 54.1 °F /  12.3 °C 29.77 in /  1008 hPa SSW 2.8 mph /  4.5 km/h 4.6 mph /  7.4 km/h 96 % 0.00 in /  0 mm
05:02 55.2 °F /  12.9 °C 54.4 °F /  12.4 °C 29.77 in /  1008 hPa SSW 2.4 mph /  3.9 km/h 4.6 mph /  7.4 km/h 97 % 0.00 in /  0 mm
05:07 55.1 °F /  12.8 °C 54.3 °F /  12.4 °C 29.77 in /  1008 hPa SSW 3.5 mph /  5.6 km/h 4.6 mph /  7.4 km/h 97 % 0.00 in /  0 mm
05:12 55.1 °F /  12.8 °C 54.3 °F /  12.4 °C 29.77 in /  1008 hPa SSW 1.1 mph /  1.8 km/h 3.5 mph /  5.6 km/h 97 % 0.00 in /  0 mm
05:17 55.0 °F /  12.8 °C 54.2 °F /  12.3 °C 29.77 in /  1008 hPa South 1.6 mph /  2.6 km/h 3.5 mph /  5.6 km/h 97 % 0.00 in /  0 mm
05:22 54.9 °F /  12.7 °C 54.1 °F /  12.3 °C 29.77 in /  1008 hPa South 3.0 mph /  4.8 km/h 4.6 mph /  7.4 km/h 97 % 0.00 in /  0 mm
05:27 54.8 °F /  12.7 °C 53.7 °F /  12.1 °C 29.77 in /  1008 hPa SSW 3.4 mph /  5.5 km/h 6.9 mph /  11.1 km/h 96 % 0.00 in /  0 mm
05:32 54.6 °F /  12.6 °C 53.5 °F /  11.9 °C 29.76 in /  1007.7 hPa South 2.3 mph /  3.7 km/h 5.8 mph /  9.3 km/h 96 % 0.00 in /  0 mm
05:37 54.5 °F /  12.5 °C 53.4 °F /  11.9 °C 29.76 in /  1007.7 hPa SSW 3.1 mph /  5 km/h 6.9 mph /  11.1 km/h 96 % 0.00 in /  0 mm
05:42 54.5 °F /  12.5 °C 53.4 °F /  11.9 °C 29.76 in /  1007.7 hPa South 1.4 mph /  2.3 km/h 5.8 mph /  9.3 km/h 96 % 0.00 in /  0 mm
05:47 54.4 °F /  12.4 °C 53.3 °F /  11.8 °C 29.76 in /  1007.7 hPa SSE 5.6 mph /  9 km/h 10.4 mph /  16.7 km/h 96 % 0.00 in /  0 mm
05:52 54.2 °F /  12.3 °C 53.1 °F /  11.7 °C 29.76 in /  1007.7 hPa SE 3.7 mph /  6 km/h 8.1 mph /  13 km/h 96 % 0.00 in /  0 mm
05:57 54.1 °F /  12.3 °C 53.0 °F /  11.7 °C 29.76 in /  1007.7 hPa South 2.8 mph /  4.5 km/h 8.1 mph /  13 km/h 96 % 0.00 in /  0 mm
06:02 54.0 °F /  12.2 °C 52.9 °F /  11.6 °C 29.76 in /  1007.7 hPa South 3.7 mph /  6 km/h 6.9 mph /  11.1 km/h 96 % 0.00 in /  0 mm
06:07 53.9 °F /  12.2 °C 52.8 °F /  11.6 °C 29.76 in /  1007.7 hPa South 3.5 mph /  5.6 km/h 6.9 mph /  11.1 km/h 96 % 0.00 in /  0 mm
06:12 53.8 °F /  12.1 °C 52.7 °F /  11.5 °C 29.76 in /  1007.7 hPa South 5.7 mph /  9.2 km/h 8.1 mph /  13 km/h 96 % 0.00 in /  0 mm
06:17 53.6 °F /  12 °C 52.5 °F /  11.4 °C 29.76 in /  1007.7 hPa South 3.0 mph /  4.8 km/h 5.0 mph /  8 km/h 96 % 0.00 in /  0 mm
06:22 53.5 °F /  11.9 °C 52.4 °F /  11.3 °C 29.76 in /  1007.7 hPa South 1.9 mph /  3.1 km/h 8.1 mph /  13 km/h 96 % 0.00 in /  0 mm
06:27 53.4 °F /  11.9 °C 52.3 °F /  11.3 °C 29.76 in /  1007.7 hPa SSE 1.7 mph /  2.7 km/h 3.5 mph /  5.6 km/h 96 % 0.00 in /  0 mm
06:33 53.3 °F /  11.8 °C 52.2 °F /  11.2 °C 29.76 in /  1007.7 hPa South 3.1 mph /  5 km/h 4.6 mph /  7.4 km/h 96 % 0.00 in /  0 mm
06:38 53.3 °F /  11.8 °C 52.5 °F /  11.4 °C 29.76 in /  1007.7 hPa SSW 4.6 mph /  7.4 km/h 8.1 mph /  13 km/h 97 % 0.00 in /  0 mm
06:43 53.2 °F /  11.8 °C 52.4 °F /  11.3 °C 29.76 in /  1007.7 hPa SSE 3.1 mph /  5 km/h 10.4 mph /  16.7 km/h 97 % 0.00 in /  0 mm
06:48 53.0 °F /  11.7 °C 52.2 °F /  11.2 °C 29.75 in /  1007.3 hPa South 4.3 mph /  6.9 km/h 6.9 mph /  11.1 km/h 97 % 0.00 in /  0 mm
06:53 53.0 °F /  11.7 °C 52.2 °F /  11.2 °C 29.75 in /  1007.3 hPa South 6.2 mph /  10 km/h 10.4 mph /  16.7 km/h 97 % 0.00 in /  0 mm
06:58 53.1 °F /  11.7 °C 52.3 °F /  11.3 °C 29.75 in /  1007.3 hPa South 6.5 mph /  10.5 km/h 10.4 mph /  16.7 km/h 97 % 0.00 in /  0 mm
07:03 53.2 °F /  11.8 °C 52.4 °F /  11.3 °C 29.75 in /  1007.3 hPa SSW 3.9 mph /  6.3 km/h 6.0 mph /  9.7 km/h 97 % 0.00 in /  0 mm
07:08 53.3 °F /  11.8 °C 52.5 °F /  11.4 °C 29.75 in /  1007.3 hPa SSW 3.7 mph /  6 km/h 6.0 mph /  9.7 km/h 97 % 0.00 in /  0 mm
07:13 53.3 °F /  11.8 °C 52.5 °F /  11.4 °C 29.75 in /  1007.3 hPa South 3.7 mph /  6 km/h 9.2 mph /  14.8 km/h 97 % 0.00 in /  0 mm
07:18 53.3 °F /  11.8 °C 52.5 °F /  11.4 °C 29.75 in /  1007.3 hPa South 5.0 mph /  8 km/h 10.0 mph /  16.1 km/h 97 % 0.00 in /  0 mm
07:23 53.3 °F /  11.8 °C 52.5 °F /  11.4 °C 29.76 in /  1007.7 hPa South 2.0 mph /  3.2 km/h 8.0 mph /  12.9 km/h 97 % 0.00 in /  0 mm
07:28 53.3 °F /  11.8 °C 52.5 °F /  11.4 °C 29.76 in /  1007.7 hPa South 5.0 mph /  8 km/h 8.0 mph /  12.9 km/h 97 % 0.00 in /  0 mm
07:33 53.3 °F /  11.8 °C 52.5 °F /  11.4 °C 29.76 in /  1007.7 hPa South 3.0 mph /  4.8 km/h 9.0 mph /  14.5 km/h 97 % 0.00 in /  0 mm
07:38 53.3 °F /  11.8 °C 52.5 °F /  11.4 °C 29.76 in /  1007.7 hPa South 2.0 mph /  3.2 km/h 7.0 mph /  11.3 km/h 97 % 0.00 in /  0 mm
07:43 53.4 °F /  11.9 °C 52.6 °F /  11.4 °C 29.76 in /  1007.7 hPa South 3.0 mph /  4.8 km/h 7.0 mph /  11.3 km/h 97 % 0.00 in /  0 mm
07:48 53.5 °F /  11.9 °C 52.7 °F /  11.5 °C 29.76 in /  1007.7 hPa South 2.0 mph /  3.2 km/h 12.0 mph /  19.3 km/h 97 % 0.00 in /  0 mm
07:53 53.6 °F /  12 °C 52.8 °F /  11.6 °C 29.75 in /  1007.3 hPa South 3.0 mph /  4.8 km/h 8.0 mph /  12.9 km/h 97 % 0.00 in /  0 mm
07:58 53.8 °F /  12.1 °C 53.0 °F /  11.7 °C 29.75 in /  1007.3 hPa SSE 2.8 mph /  4.5 km/h 5.8 mph /  9.3 km/h 97 % 0.00 in /  0 mm
08:03 54.0 °F /  12.2 °C 53.2 °F /  11.8 °C 29.75 in /  1007.3 hPa SSE 2.0 mph /  3.2 km/h 13.0 mph /  20.9 km/h 97 % 0.00 in /  0 mm
08:09 54.3 °F /  12.4 °C 53.7 °F /  12.1 °C 29.75 in /  1007.3 hPa SSE 2.3 mph /  3.7 km/h 4.6 mph /  7.4 km/h 98 % 0.00 in /  0 mm
08:14 54.6 °F /  12.6 °C 54.0 °F /  12.2 °C 29.74 in /  1007 hPa SSE 2.5 mph /  4 km/h 7.0 mph /  11.3 km/h 98 % 0.00 in /  0 mm
08:19 54.8 °F /  12.7 °C 54.2 °F /  12.3 °C 29.74 in /  1007 hPa SSE 3.3 mph /  5.3 km/h 3.5 mph /  5.6 km/h 98 % 0.00 in /  0 mm
08:24 55.1 °F /  12.8 °C 54.5 °F /  12.5 °C 29.74 in /  1007 hPa South 0.3 mph /  0.5 km/h 3.5 mph /  5.6 km/h 98 % 0.00 in /  0 mm
08:29 55.4 °F /  13 °C 54.8 °F /  12.7 °C 29.74 in /  1007 hPa South 1.7 mph /  2.7 km/h 6.9 mph /  11.1 km/h 98 % 0.00 in /  0 mm
08:34 55.5 °F /  13.1 °C 54.9 °F /  12.7 °C 29.74 in /  1007 hPa SSW 2.1 mph /  3.4 km/h 5.0 mph /  8 km/h 98 % 0.00 in /  0 mm
08:39 55.5 °F /  13.1 °C 54.9 °F /  12.7 °C 29.74 in /  1007 hPa SSW 2.0 mph /  3.2 km/h 3.5 mph /  5.6 km/h 98 % 0.00 in /  0 mm
08:44 55.7 °F /  13.2 °C 55.1 °F /  12.8 °C 29.74 in /  1007 hPa South 3.7 mph /  6 km/h 3.7 mph /  6 km/h 98 % 0.00 in /  0 mm
08:45 55.7 °F /  13.2 °C 55.1 °F /  12.8 °C 29.74 in /  1007 hPa South 1.8 mph /  2.9 km/h 8.1 mph /  13 km/h 98 % 0.00 in /  0 mm
08:50 55.8 °F /  13.2 °C 55.2 °F /  12.9 °C 29.73 in /  1006.7 hPa SSE 1.1 mph /  1.8 km/h 4.6 mph /  7.4 km/h 98 % 0.00 in /  0 mm
08:55 56.2 °F /  13.4 °C 55.6 °F /  13.1 °C 29.73 in /  1006.7 hPa SSE 3.3 mph /  5.3 km/h 5.0 mph /  8 km/h 98 % 0.00 in /  0 mm
09:00 56.7 °F /  13.7 °C 56.1 °F /  13.4 °C 29.73 in /  1006.7 hPa South 2.1 mph /  3.4 km/h 8.0 mph /  12.9 km/h 98 % 0.00 in /  0 mm
09:05 57.1 °F /  13.9 °C 56.5 °F /  13.6 °C 29.73 in /  1006.7 hPa South 4.6 mph /  7.4 km/h 9.0 mph /  14.5 km/h 98 % 0.00 in /  0 mm
09:10 57.6 °F /  14.2 °C 57.0 °F /  13.9 °C 29.73 in /  1006.7 hPa SSE 3.9 mph /  6.3 km/h 7.0 mph /  11.3 km/h 98 % 0.00 in /  0 mm
09:15 58.0 °F /  14.4 °C 57.4 °F /  14.1 °C 29.73 in /  1006.7 hPa SSE 3.3 mph /  5.3 km/h 9.0 mph /  14.5 km/h 98 % 0.00 in /  0 mm
09:20 58.5 °F /  14.7 °C 57.9 °F /  14.4 °C 29.73 in /  1006.7 hPa SE 1.4 mph /  2.3 km/h 3.5 mph /  5.6 km/h 98 % 0.00 in /  0 mm
09:25 59.1 °F /  15.1 °C 58.5 °F /  14.7 °C 29.73 in /  1006.7 hPa SE 2.0 mph /  3.2 km/h 4.6 mph /  7.4 km/h 98 % 0.00 in /  0 mm
09:30 59.5 °F /  15.3 °C 58.6 °F /  14.8 °C 29.73 in /  1006.7 hPa SE 1.2 mph /  1.9 km/h 4.6 mph /  7.4 km/h 97 % 0.00 in /  0 mm
09:35 59.7 °F /  15.4 °C 58.6 °F /  14.8 °C 29.72 in /  1006.3 hPa SSW 4.8 mph /  7.7 km/h 9.0 mph /  14.5 km/h 96 % 0.00 in /  0 mm
09:38 60.0 °F /  15.6 °C 58.9 °F /  14.9 °C 29.73 in /  1006.7 hPa SSW 3.7 mph /  6 km/h 5.8 mph /  9.3 km/h 96 % 0.00 in /  0 mm
09:43 60.6 °F /  15.9 °C 59.2 °F /  15.1 °C 29.72 in /  1006.3 hPa SSE 2.0 mph /  3.2 km/h 4.6 mph /  7.4 km/h 95 % 0.00 in /  0 mm
09:48 61.3 °F /  16.3 °C 59.6 °F /  15.3 °C 29.72 in /  1006.3 hPa SE 2.1 mph /  3.4 km/h 5.8 mph /  9.3 km/h 94 % 0.00 in /  0 mm
09:54 61.7 °F /  16.5 °C 59.4 °F /  15.2 °C 29.72 in /  1006.3 hPa SSE 5.6 mph /  9 km/h 11.5 mph /  18.5 km/h 92 % 0.00 in /  0 mm
09:59 62.0 °F /  16.7 °C 59.0 °F /  15 °C 29.72 in /  1006.3 hPa South 2.7 mph /  4.3 km/h 4.6 mph /  7.4 km/h 90 % 0.00 in /  0 mm
10:04 62.4 °F /  16.9 °C 58.8 °F /  14.9 °C 29.71 in /  1006 hPa SE 5.5 mph /  8.9 km/h 10.4 mph /  16.7 km/h 88 % 0.00 in /  0 mm
10:09 62.6 °F /  17 °C 59.0 °F /  15 °C 29.71 in /  1006 hPa SE 5.0 mph /  8 km/h 10.4 mph /  16.7 km/h 88 % 0.00 in /  0 mm
10:14 62.6 °F /  17 °C 58.7 °F /  14.8 °C 29.71 in /  1006 hPa South 2.9 mph /  4.7 km/h 4.6 mph /  7.4 km/h 87 % 0.00 in /  0 mm
10:19 62.7 °F /  17.1 °C 58.8 °F /  14.9 °C 29.70 in /  1005.6 hPa SSE 3.3 mph /  5.3 km/h 5.0 mph /  8 km/h 87 % 0.00 in /  0 mm
10:24 62.9 °F /  17.2 °C 58.6 °F /  14.8 °C 29.70 in /  1005.6 hPa SE 4.0 mph /  6.4 km/h 9.2 mph /  14.8 km/h 86 % 0.00 in /  0 mm
10:29 63.0 °F /  17.2 °C 58.7 °F /  14.8 °C 29.70 in /  1005.6 hPa SE 7.7 mph /  12.4 km/h 13.8 mph /  22.2 km/h 86 % 0.00 in /  0 mm
10:34 62.9 °F /  17.2 °C 58.6 °F /  14.8 °C 29.70 in /  1005.6 hPa SSW 4.6 mph /  7.4 km/h 11.5 mph /  18.5 km/h 86 % 0.00 in /  0 mm
10:39 63.2 °F /  17.3 °C 57.9 °F /  14.4 °C 29.70 in /  1005.6 hPa ENE 2.2 mph /  3.5 km/h 4.6 mph /  7.4 km/h 83 % 0.00 in /  0 mm
10:44 63.0 °F /  17.2 °C 58.1 °F /  14.5 °C 29.69 in /  1005.3 hPa SSE 8.9 mph /  14.3 km/h 17.0 mph /  27.4 km/h 84 % 0.00 in /  0 mm
10:49 62.4 °F /  16.9 °C 58.2 °F /  14.6 °C 29.69 in /  1005.3 hPa South 5.9 mph /  9.5 km/h 10.0 mph /  16.1 km/h 86 % 0.00 in /  0 mm
10:54 62.6 °F /  17 °C 58.7 °F /  14.8 °C 29.69 in /  1005.3 hPa SE 7.1 mph /  11.4 km/h 13.8 mph /  22.2 km/h 87 % 0.00 in /  0 mm
10:59 62.6 °F /  17 °C 58.4 °F /  14.7 °C 29.69 in /  1005.3 hPa South 7.5 mph /  12.1 km/h 11.5 mph /  18.5 km/h 86 % 0.00 in /  0 mm
11:04 62.8 °F /  17.1 °C 58.5 °F /  14.7 °C 29.68 in /  1005 hPa SE 3.6 mph /  5.8 km/h 8.1 mph /  13 km/h 86 % 0.00 in /  0 mm
11:09 63.1 °F /  17.3 °C 58.5 °F /  14.7 °C 29.68 in /  1005 hPa South 5.7 mph /  9.2 km/h 13.8 mph /  22.2 km/h 85 % 0.00 in /  0 mm
11:14 63.2 °F /  17.3 °C 58.6 °F /  14.8 °C 29.68 in /  1005 hPa SSW 6.8 mph /  10.9 km/h 11.5 mph /  18.5 km/h 85 % 0.00 in /  0 mm
11:19 63.7 °F /  17.6 °C 59.1 °F /  15.1 °C 29.67 in /  1004.6 hPa SSE 4.4 mph /  7.1 km/h 9.2 mph /  14.8 km/h 85 % 0.00 in /  0 mm
11:24 64.0 °F /  17.8 °C 58.7 °F /  14.8 °C 29.67 in /  1004.6 hPa SSE 7.5 mph /  12.1 km/h 13.8 mph /  22.2 km/h 83 % 0.00 in /  0 mm
11:29 63.8 °F /  17.7 °C 58.2 °F /  14.6 °C 29.67 in /  1004.6 hPa SSE 10.9 mph /  17.5 km/h 15.0 mph /  24.1 km/h 82 % 0.00 in /  0 mm
11:34 63.8 °F /  17.7 °C 58.5 °F /  14.7 °C 29.67 in /  1004.6 hPa SE 3.9 mph /  6.3 km/h 11.5 mph /  18.5 km/h 83 % 0.00 in /  0 mm
11:39 64.2 °F /  17.9 °C 58.6 °F /  14.8 °C 29.67 in /  1004.6 hPa ESE 6.9 mph /  11.1 km/h 13.8 mph /  22.2 km/h 82 % 0.00 in /  0 mm
11:45 64.8 °F /  18.2 °C 59.2 °F /  15.1 °C 29.67 in /  1004.6 hPa SSE 5.6 mph /  9 km/h 8.1 mph /  13 km/h 82 % 0.00 in /  0 mm
11:50 65.4 °F /  18.6 °C 59.8 °F /  15.4 °C 29.67 in /  1004.6 hPa South 5.5 mph /  8.9 km/h 11.5 mph /  18.5 km/h 82 % 0.00 in /  0 mm
11:55 65.5 °F /  18.6 °C 59.2 °F /  15.1 °C 29.67 in /  1004.6 hPa South 4.5 mph /  7.2 km/h 11.5 mph /  18.5 km/h 80 % 0.00 in /  0 mm
12:00 65.4 °F /  18.6 °C 59.1 °F /  15.1 °C 29.66 in /  1004.3 hPa South 5.6 mph /  9 km/h 11.5 mph /  18.5 km/h 80 % 0.00 in /  0 mm
12:05 65.3 °F /  18.5 °C 59.0 °F /  15 °C 29.65 in /  1003.9 hPa SSW 6.3 mph /  10.1 km/h 9.0 mph /  14.5 km/h 80 % 0.00 in /  0 mm
12:10 65.2 °F /  18.4 °C 58.9 °F /  14.9 °C 29.65 in /  1003.9 hPa South 7.3 mph /  11.7 km/h 13.8 mph /  22.2 km/h 80 % 0.00 in /  0 mm
12:15 65.0 °F /  18.3 °C 58.7 °F /  14.8 °C 29.65 in /  1003.9 hPa South 7.4 mph /  11.9 km/h 11.0 mph /  17.7 km/h 80 % 0.00 in /  0 mm
12:20 64.8 °F /  18.2 °C 58.8 °F /  14.9 °C 29.64 in /  1003.6 hPa South 5.4 mph /  8.7 km/h 13.8 mph /  22.2 km/h 81 % 0.00 in /  0 mm
12:25 64.7 °F /  18.2 °C 58.7 °F /  14.8 °C 29.65 in /  1003.9 hPa SSE 9.7 mph /  15.6 km/h 11.0 mph /  17.7 km/h 81 % 0.00 in /  0 mm
12:30 64.7 °F /  18.2 °C 58.7 °F /  14.8 °C 29.64 in /  1003.6 hPa SSE 7.8 mph /  12.6 km/h 13.8 mph /  22.2 km/h 81 % 0.00 in /  0 mm
12:35 64.9 °F /  18.3 °C 58.9 °F /  14.9 °C 29.64 in /  1003.6 hPa South 7.8 mph /  12.6 km/h 11.0 mph /  17.7 km/h 81 % 0.00 in /  0 mm
12:40 64.9 °F /  18.3 °C 58.6 °F /  14.8 °C 29.64 in /  1003.6 hPa South 4.2 mph /  6.8 km/h 13.8 mph /  22.2 km/h 80 % 0.00 in /  0 mm
12:45 64.9 °F /  18.3 °C 58.2 °F /  14.6 °C 29.63 in /  1003.3 hPa SSW 4.1 mph /  6.6 km/h 13.8 mph /  22.2 km/h 79 % 0.00 in /  0 mm
12:50 65.0 °F /  18.3 °C 58.3 °F /  14.6 °C 29.63 in /  1003.3 hPa South 11.4 mph /  18.3 km/h 14.0 mph /  22.5 km/h 79 % 0.00 in /  0 mm
12:55 65.2 °F /  18.4 °C 58.5 °F /  14.7 °C 29.62 in /  1002.9 hPa SSE 7.8 mph /  12.6 km/h 11.5 mph /  18.5 km/h 79 % 0.00 in /  0 mm
13:00 65.2 °F /  18.4 °C 58.2 °F /  14.6 °C 29.62 in /  1002.9 hPa SSE 10.6 mph /  17.1 km/h 18.4 mph /  29.6 km/h 78 % 0.00 in /  0 mm
13:05 65.3 °F /  18.5 °C 58.6 °F /  14.8 °C 29.61 in /  1002.6 hPa SSE 6.3 mph /  10.1 km/h 9.2 mph /  14.8 km/h 79 % 0.00 in /  0 mm
13:10 65.9 °F /  18.8 °C 58.8 °F /  14.9 °C 29.61 in /  1002.6 hPa South 6.1 mph /  9.8 km/h 10.4 mph /  16.7 km/h 78 % 0.00 in /  0 mm
13:15 66.0 °F /  18.9 °C 58.6 °F /  14.8 °C 29.60 in /  1002.3 hPa SSE 6.4 mph /  10.3 km/h 11.5 mph /  18.5 km/h 77 % 0.00 in /  0 mm
13:20 66.2 °F /  19 °C 59.1 °F /  15.1 °C 29.60 in /  1002.3 hPa SE 8.4 mph /  13.5 km/h 16.0 mph /  25.7 km/h 78 % 0.00 in /  0 mm
13:25 66.3 °F /  19.1 °C 58.9 °F /  14.9 °C 29.59 in /  1001.9 hPa SSE 7.1 mph /  11.4 km/h 11.0 mph /  17.7 km/h 77 % 0.00 in /  0 mm
13:30 65.7 °F /  18.7 °C 58.3 °F /  14.6 °C 29.59 in /  1001.9 hPa South 10.7 mph /  17.2 km/h 21.9 mph /  35.2 km/h 77 % 0.00 in /  0 mm
13:36 65.2 °F /  18.4 °C 58.5 °F /  14.7 °C 29.58 in /  1001.6 hPa SSE 4.2 mph /  6.8 km/h 15.0 mph /  24.1 km/h 79 % 0.00 in /  0 mm
13:41 65.3 °F /  18.5 °C 58.6 °F /  14.8 °C 29.58 in /  1001.6 hPa ESE 7.6 mph /  12.2 km/h 12.0 mph /  19.3 km/h 79 % 0.00 in /  0 mm
13:42 65.4 °F /  18.6 °C 58.7 °F /  14.8 °C 29.58 in /  1001.6 hPa SE 8.8 mph /  14.2 km/h 13.8 mph /  22.2 km/h 79 % 0.00 in /  0 mm
13:47 65.5 °F /  18.6 °C 58.8 °F /  14.9 °C 29.57 in /  1001.2 hPa SSW 6.5 mph /  10.5 km/h 12.7 mph /  20.4 km/h 79 % 0.00 in /  0 mm
13:52 65.8 °F /  18.8 °C 59.1 °F /  15.1 °C 29.57 in /  1001.2 hPa SSW 6.3 mph /  10.1 km/h 9.2 mph /  14.8 km/h 79 % 0.00 in /  0 mm
13:57 66.1 °F /  18.9 °C 59.4 °F /  15.2 °C 29.57 in /  1001.2 hPa SSW 5.7 mph /  9.2 km/h 11.5 mph /  18.5 km/h 79 % 0.00 in /  0 mm
14:02 66.5 °F /  19.2 °C 59.8 °F /  15.4 °C 29.57 in /  1001.2 hPa SSW 7.2 mph /  11.6 km/h 18.4 mph /  29.6 km/h 79 % 0.00 in /  0 mm
14:07 66.6 °F /  19.2 °C 59.5 °F /  15.3 °C 29.57 in /  1001.2 hPa South 6.7 mph /  10.8 km/h 11.5 mph /  18.5 km/h 78 % 0.00 in /  0 mm
14:12 66.5 °F /  19.2 °C 59.1 °F /  15.1 °C 29.57 in /  1001.2 hPa SSE 6.3 mph /  10.1 km/h 10.4 mph /  16.7 km/h 77 % 0.00 in /  0 mm
14:17 66.3 °F /  19.1 °C 59.2 °F /  15.1 °C 29.56 in /  1000.9 hPa SE 8.4 mph /  13.5 km/h 13.8 mph /  22.2 km/h 78 % 0.00 in /  0 mm
14:22 66.1 °F /  18.9 °C 59.4 °F /  15.2 °C 29.56 in /  1000.9 hPa SSE 9.1 mph /  14.6 km/h 13.8 mph /  22.2 km/h 79 % 0.00 in /  0 mm
14:27 65.8 °F /  18.8 °C 58.7 °F /  14.8 °C 29.55 in /  1000.6 hPa South 8.4 mph /  13.5 km/h 18.4 mph /  29.6 km/h 78 % 0.00 in /  0 mm
14:32 65.2 °F /  18.4 °C 58.9 °F /  14.9 °C 29.55 in /  1000.6 hPa SSE 9.0 mph /  14.5 km/h 12.7 mph /  20.4 km/h 80 % 0.00 in /  0 mm
14:37 64.9 °F /  18.3 °C 58.6 °F /  14.8 °C 29.55 in /  1000.6 hPa South 8.2 mph /  13.2 km/h 12.7 mph /  20.4 km/h 80 % 0.00 in /  0 mm
14:42 64.6 °F /  18.1 °C 58.6 °F /  14.8 °C 29.54 in /  1000.2 hPa SSE 7.4 mph /  11.9 km/h 13.0 mph /  20.9 km/h 81 % 0.00 in /  0 mm
14:47 64.5 °F /  18.1 °C 58.5 °F /  14.7 °C 29.54 in /  1000.2 hPa South 5.4 mph /  8.7 km/h 9.2 mph /  14.8 km/h 81 % 0.00 in /  0 mm
14:52 64.5 °F /  18.1 °C 58.5 °F /  14.7 °C 29.54 in /  1000.2 hPa SSE 2.2 mph /  3.5 km/h 3.5 mph /  5.6 km/h 81 % 0.00 in /  0 mm
14:58 64.7 °F /  18.2 °C 58.7 °F /  14.8 °C 29.53 in /  999.9 hPa SSE 5.9 mph /  9.5 km/h 11.5 mph /  18.5 km/h 81 % 0.00 in /  0 mm
15:03 64.7 °F /  18.2 °C 58.7 °F /  14.8 °C 29.53 in /  999.9 hPa South 3.7 mph /  6 km/h 7.0 mph /  11.3 km/h 81 % 0.00 in /  0 mm
15:08 64.7 °F /  18.2 °C 58.7 °F /  14.8 °C 29.53 in /  999.9 hPa South 4.3 mph /  6.9 km/h 6.9 mph /  11.1 km/h 81 % 0.00 in /  0 mm
15:13 64.8 °F /  18.2 °C 58.8 °F /  14.9 °C 29.52 in /  999.5 hPa South 7.1 mph /  11.4 km/h 11.5 mph /  18.5 km/h 81 % 0.00 in /  0 mm
15:18 64.7 °F /  18.2 °C 58.7 °F /  14.8 °C 29.52 in /  999.5 hPa SSE 6.3 mph /  10.1 km/h 9.2 mph /  14.8 km/h 81 % 0.00 in /  0 mm
15:23 64.7 °F /  18.2 °C 58.7 °F /  14.8 °C 29.51 in /  999.2 hPa South 9.8 mph /  15.8 km/h 9.8 mph /  15.8 km/h 81 % 0.00 in /  0 mm
15:28 64.7 °F /  18.2 °C 58.7 °F /  14.8 °C 29.51 in /  999.2 hPa SSE 6.0 mph /  9.7 km/h 16.0 mph /  25.7 km/h 81 % 0.00 in /  0 mm
15:33 64.6 °F /  18.1 °C 58.6 °F /  14.8 °C 29.50 in /  998.9 hPa South 5.5 mph /  8.9 km/h 12.7 mph /  20.4 km/h 81 % 0.00 in /  0 mm
15:38 64.5 °F /  18.1 °C 58.5 °F /  14.7 °C 29.50 in /  998.9 hPa SSE 8.0 mph /  12.9 km/h 15.0 mph /  24.1 km/h 81 % 0.00 in /  0 mm
15:43 64.4 °F /  18 °C 58.4 °F /  14.7 °C 29.50 in /  998.9 hPa South 8.0 mph /  12.9 km/h 15.0 mph /  24.1 km/h 81 % 0.00 in /  0 mm
15:48 64.4 °F /  18 °C 58.8 °F /  14.9 °C 29.49 in /  998.5 hPa SSE 5.0 mph /  8 km/h 14.0 mph /  22.5 km/h 82 % 0.00 in /  0 mm
15:53 64.3 °F /  17.9 °C 58.7 °F /  14.8 °C 29.49 in /  998.5 hPa SSE 10.0 mph /  16.1 km/h 20.0 mph /  32.2 km/h 82 % 0.00 in /  0 mm
15:58 63.6 °F /  17.6 °C 58.0 °F /  14.4 °C 29.48 in /  998.2 hPa SSW 7.3 mph /  11.7 km/h 15.0 mph /  24.1 km/h 82 % 0.00 in /  0 mm
16:03 62.9 °F /  17.2 °C 57.7 °F /  14.3 °C 29.47 in /  997.9 hPa South 5.1 mph /  8.2 km/h 13.8 mph /  22.2 km/h 83 % 0.00 in /  0 mm
16:08 62.6 °F /  17 °C 57.7 °F /  14.3 °C 29.47 in /  997.9 hPa SSE 8.3 mph /  13.4 km/h 11.5 mph /  18.5 km/h 84 % 0.00 in /  0 mm
16:13 62.0 °F /  16.7 °C 57.4 °F /  14.1 °C 29.46 in /  997.5 hPa SE 6.9 mph /  11.1 km/h 12.7 mph /  20.4 km/h 85 % 0.00 in /  0 mm
16:18 61.5 °F /  16.4 °C 57.3 °F /  14.1 °C 29.47 in /  997.9 hPa ESE 7.1 mph /  11.4 km/h 11.5 mph /  18.5 km/h 86 % 0.00 in /  0 mm
16:23 61.2 °F /  16.2 °C 57.3 °F /  14.1 °C 29.47 in /  997.9 hPa SSE 4.1 mph /  6.6 km/h 10.4 mph /  16.7 km/h 87 % 0.00 in /  0 mm
16:28 60.9 °F /  16.1 °C 57.0 °F /  13.9 °C 29.46 in /  997.5 hPa SSE 2.8 mph /  4.5 km/h 4.6 mph /  7.4 km/h 87 % 0.00 in /  0 mm
16:33 60.8 °F /  16 °C 56.9 °F /  13.8 °C 29.46 in /  997.5 hPa South 4.2 mph /  6.8 km/h 6.9 mph /  11.1 km/h 87 % 0.00 in /  0 mm
16:38 60.4 °F /  15.8 °C 56.8 °F /  13.8 °C 29.46 in /  997.5 hPa South 10.4 mph /  16.7 km/h 17.3 mph /  27.8 km/h 88 % 0.00 in /  0 mm
16:43 59.6 °F /  15.3 °C 56.7 °F /  13.7 °C 29.47 in /  997.9 hPa South 5.4 mph /  8.7 km/h 15.0 mph /  24.1 km/h 90 % 0.00 in /  0 mm
16:48 59.2 °F /  15.1 °C 56.6 °F /  13.7 °C 29.48 in /  998.2 hPa South 7.4 mph /  11.9 km/h 16.1 mph /  25.9 km/h 91 % 0.00 in /  0 mm
16:53 58.8 °F /  14.9 °C 56.2 °F /  13.4 °C 29.48 in /  998.2 hPa SSE 2.1 mph /  3.4 km/h 5.0 mph /  8 km/h 91 % 0.00 in /  0 mm
16:58 58.6 °F /  14.8 °C 56.0 °F /  13.3 °C 29.48 in /  998.2 hPa South 3.2 mph /  5.1 km/h 6.9 mph /  11.1 km/h 91 % 0.00 in /  0 mm
17:04 58.5 °F /  14.7 °C 56.2 °F /  13.4 °C 29.48 in /  998.2 hPa SSW 4.0 mph /  6.4 km/h 7.0 mph /  11.3 km/h 92 % 0.00 in /  0 mm
17:09 58.2 °F /  14.6 °C 55.9 °F /  13.3 °C 29.48 in /  998.2 hPa South 2.9 mph /  4.7 km/h 6.9 mph /  11.1 km/h 92 % 0.00 in /  0 mm
17:14 58.1 °F /  14.5 °C 55.8 °F /  13.2 °C 29.48 in /  998.2 hPa SSE 5.7 mph /  9.2 km/h 10.4 mph /  16.7 km/h 92 % 0.00 in /  0 mm
17:19 57.8 °F /  14.3 °C 55.8 °F /  13.2 °C 29.49 in /  998.5 hPa SSW 4.9 mph /  7.9 km/h 8.1 mph /  13 km/h 93 % 0.00 in /  0 mm
17:24 57.7 °F /  14.3 °C 55.7 °F /  13.2 °C 29.49 in /  998.5 hPa SSE 3.2 mph /  5.1 km/h 9.2 mph /  14.8 km/h 93 % 0.00 in /  0 mm
17:29 57.5 °F /  14.2 °C 55.5 °F /  13.1 °C 29.49 in /  998.5 hPa South 3.6 mph /  5.8 km/h 5.8 mph /  9.3 km/h 93 % 0.00 in /  0 mm
17:34 57.3 °F /  14.1 °C 55.3 °F /  12.9 °C 29.49 in /  998.5 hPa South 2.2 mph /  3.5 km/h 4.0 mph /  6.4 km/h 93 % 0.00 in /  0 mm
17:39 57.2 °F /  14 °C 55.2 °F /  12.9 °C 29.49 in /  998.5 hPa South 5.2 mph /  8.4 km/h 5.8 mph /  9.3 km/h 93 % 0.00 in /  0 mm
17:44 57.1 °F /  13.9 °C 55.1 °F /  12.8 °C 29.48 in /  998.2 hPa SSW 6.2 mph /  10 km/h 11.0 mph /  17.7 km/h 93 % 0.00 in /  0 mm
17:49 57.1 °F /  13.9 °C 55.1 °F /  12.8 °C 29.48 in /  998.2 hPa South 5.4 mph /  8.7 km/h 9.2 mph /  14.8 km/h 93 % 0.00 in /  0 mm
17:54 56.9 °F /  13.8 °C 55.2 °F /  12.9 °C 29.48 in /  998.2 hPa SSE 2.2 mph /  3.5 km/h 8.1 mph /  13 km/h 94 % 0.00 in /  0 mm
17:59 56.8 °F /  13.8 °C 55.1 °F /  12.8 °C 29.48 in /  998.2 hPa South 6.3 mph /  10.1 km/h 11.5 mph /  18.5 km/h 94 % 0.00 in /  0 mm
18:04 56.6 °F /  13.7 °C 54.9 °F /  12.7 °C 29.47 in /  997.9 hPa South 5.8 mph /  9.3 km/h 12.7 mph /  20.4 km/h 94 % 0.00 in /  0 mm
18:09 56.5 °F /  13.6 °C 54.8 °F /  12.7 °C 29.47 in /  997.9 hPa South 3.0 mph /  4.8 km/h 6.9 mph /  11.1 km/h 94 % 0.00 in /  0 mm
18:14 56.5 °F /  13.6 °C 54.8 °F /  12.7 °C 29.47 in /  997.9 hPa South 5.6 mph /  9 km/h 11.5 mph /  18.5 km/h 94 % 0.00 in /  0 mm
18:19 56.4 °F /  13.6 °C 55.0 °F /  12.8 °C 29.47 in /  997.9 hPa SSE 3.5 mph /  5.6 km/h 6.9 mph /  11.1 km/h 95 % 0.00 in /  0 mm
18:24 56.4 °F /  13.6 °C 55.0 °F /  12.8 °C 29.47 in /  997.9 hPa South 3.6 mph /  5.8 km/h 5.8 mph /  9.3 km/h 95 % 0.00 in /  0 mm
18:29 56.4 °F /  13.6 °C 55.0 °F /  12.8 °C 29.46 in /  997.5 hPa SSE 3.3 mph /  5.3 km/h 9.2 mph /  14.8 km/h 95 % 0.00 in /  0 mm
18:34 56.4 °F /  13.6 °C 55.0 °F /  12.8 °C 29.46 in /  997.5 hPa SSE 6.0 mph /  9.7 km/h 9.2 mph /  14.8 km/h 95 % 0.00 in /  0 mm
18:37 56.4 °F /  13.6 °C 55.0 °F /  12.8 °C 29.45 in /  997.2 hPa South 1.7 mph /  2.7 km/h 8.1 mph /  13 km/h 95 % 0.00 in /  0 mm
18:40 56.4 °F /  13.6 °C 55.0 °F /  12.8 °C 29.46 in /  997.5 hPa South 5.7 mph /  9.2 km/h 8.1 mph /  13 km/h 95 % 0.00 in /  0 mm
18:45 56.3 °F /  13.5 °C 54.9 °F /  12.7 °C 29.45 in /  997.2 hPa SE 5.7 mph /  9.2 km/h 11.5 mph /  18.5 km/h 95 % 0.00 in /  0 mm
18:50 56.3 °F /  13.5 °C 54.9 °F /  12.7 °C 29.45 in /  997.2 hPa SSW 5.8 mph /  9.3 km/h 13.8 mph /  22.2 km/h 95 % 0.00 in /  0 mm
18:55 56.3 °F /  13.5 °C 54.9 °F /  12.7 °C 29.44 in /  996.8 hPa South 2.8 mph /  4.5 km/h 9.2 mph /  14.8 km/h 95 % 0.00 in /  0 mm
19:00 56.3 °F /  13.5 °C 54.9 °F /  12.7 °C 29.45 in /  997.2 hPa South 5.1 mph /  8.2 km/h 6.9 mph /  11.1 km/h 95 % 0.00 in /  0 mm
19:05 56.2 °F /  13.4 °C 54.8 °F /  12.7 °C 29.46 in /  997.5 hPa SSW 6.7 mph /  10.8 km/h 10.4 mph /  16.7 km/h 95 % 0.00 in /  0 mm
19:10 56.2 °F /  13.4 °C 54.8 °F /  12.7 °C 29.47 in /  997.9 hPa SSW 7.1 mph /  11.4 km/h 15.0 mph /  24.1 km/h 95 % 0.00 in /  0 mm
19:15 56.2 °F /  13.4 °C 54.8 °F /  12.7 °C 29.48 in /  998.2 hPa SW 7.3 mph /  11.7 km/h 11.5 mph /  18.5 km/h 95 % 0.03 in /  0.76 mm
19:20 56.2 °F /  13.4 °C 54.8 °F /  12.7 °C 29.50 in /  998.9 hPa SW 6.5 mph /  10.5 km/h 12.0 mph /  19.3 km/h 95 % 0.04 in /  1.02 mm
19:25 56.0 °F /  13.3 °C 54.6 °F /  12.6 °C 29.48 in /  998.2 hPa SW 3.2 mph /  5.1 km/h 9.2 mph /  14.8 km/h 95 % 0.05 in /  1.27 mm
19:30 56.0 °F /  13.3 °C 54.6 °F /  12.6 °C 29.48 in /  998.2 hPa SW 3.4 mph /  5.5 km/h 4.6 mph /  7.4 km/h 95 % 0.06 in /  1.52 mm
19:35 55.9 °F /  13.3 °C 54.5 °F /  12.5 °C 29.48 in /  998.2 hPa WSW 7.1 mph /  11.4 km/h 9.2 mph /  14.8 km/h 95 % 0.06 in /  1.52 mm
19:40 55.8 °F /  13.2 °C 54.4 °F /  12.4 °C 29.48 in /  998.2 hPa West 1.9 mph /  3.1 km/h 4.6 mph /  7.4 km/h 95 % 0.07 in /  1.78 mm
19:45 55.8 °F /  13.2 °C 54.4 °F /  12.4 °C 29.49 in /  998.5 hPa WSW 2.3 mph /  3.7 km/h 4.6 mph /  7.4 km/h 95 % 0.07 in /  1.78 mm
19:50 55.7 °F /  13.2 °C 54.3 °F /  12.4 °C 29.49 in /  998.5 hPa SW 3.2 mph /  5.1 km/h 3.5 mph /  5.6 km/h 95 % 0.08 in /  2.03 mm
19:56 55.6 °F /  13.1 °C 54.2 °F /  12.3 °C 29.50 in /  998.9 hPa West 1.8 mph /  2.9 km/h 5.8 mph /  9.3 km/h 95 % 0.08 in /  2.03 mm
20:01 55.5 °F /  13.1 °C 54.1 °F /  12.3 °C 29.49 in /  998.5 hPa WNW 5.4 mph /  8.7 km/h 8.0 mph /  12.9 km/h 95 % 0.08 in /  2.03 mm
20:06 54.9 °F /  12.7 °C 53.2 °F /  11.8 °C 29.49 in /  998.5 hPa WNW 8.5 mph /  13.7 km/h 13.0 mph /  20.9 km/h 94 % 0.09 in /  2.29 mm
20:11 53.9 °F /  12.2 °C 51.6 °F /  10.9 °C 29.50 in /  998.9 hPa WNW 5.1 mph /  8.2 km/h 11.5 mph /  18.5 km/h 92 % 0.09 in /  2.29 mm
20:16 52.5 °F /  11.4 °C 49.7 °F /  9.8 °C 29.54 in /  1000.2 hPa WNW 11.9 mph /  19.2 km/h 18.0 mph /  29 km/h 90 % 0.06 in /  1.52 mm
20:21 51.2 °F /  10.7 °C 48.1 °F /  8.9 °C 29.55 in /  1000.6 hPa WNW 9.5 mph /  15.3 km/h 12.7 mph /  20.4 km/h 89 % 0.06 in /  1.52 mm
20:26 50.3 °F /  10.2 °C 47.5 °F /  8.6 °C 29.55 in /  1000.6 hPa NNE 5.3 mph /  8.5 km/h 13.8 mph /  22.2 km/h 90 % 0.05 in /  1.27 mm
20:31 49.6 °F /  9.8 °C 46.5 °F /  8.1 °C 29.55 in /  1000.6 hPa NW 6.8 mph /  10.9 km/h 19.6 mph /  31.5 km/h 89 % 0.04 in /  1.02 mm
20:36 49.2 °F /  9.6 °C 46.4 °F /  8 °C 29.55 in /  1000.6 hPa NW 3.6 mph /  5.8 km/h 11.5 mph /  18.5 km/h 90 % 0.04 in /  1.02 mm
20:41 48.8 °F /  9.3 °C 46.0 °F /  7.8 °C 29.54 in /  1000.2 hPa NW 6.0 mph /  9.7 km/h 10.4 mph /  16.7 km/h 90 % 0.03 in /  0.76 mm
20:46 48.4 °F /  9.1 °C 45.6 °F /  7.6 °C 29.54 in /  1000.2 hPa West 6.6 mph /  10.6 km/h 12.7 mph /  20.4 km/h 90 % 0.04 in /  1.02 mm
20:51 48.0 °F /  8.9 °C 44.9 °F /  7.2 °C 29.54 in /  1000.2 hPa West 5.0 mph /  8 km/h 10.4 mph /  16.7 km/h 89 % 0.03 in /  0.76 mm
20:56 47.7 °F /  8.7 °C 44.6 °F /  7 °C 29.53 in /  999.9 hPa NW 4.6 mph /  7.4 km/h 5.8 mph /  9.3 km/h 89 % 0.03 in /  0.76 mm
21:01 47.4 °F /  8.6 °C 44.6 °F /  7 °C 29.54 in /  1000.2 hPa West 2.3 mph /  3.7 km/h 6.9 mph /  11.1 km/h 90 % 0.03 in /  0.76 mm
21:06 47.2 °F /  8.4 °C 44.1 °F /  6.7 °C 29.55 in /  1000.6 hPa WNW 4.4 mph /  7.1 km/h 10.4 mph /  16.7 km/h 89 % 0.02 in /  0.51 mm
21:11 46.9 °F /  8.3 °C 43.8 °F /  6.6 °C 29.56 in /  1000.9 hPa NW 4.6 mph /  7.4 km/h 8.1 mph /  13 km/h 89 % 0.02 in /  0.51 mm
21:16 46.8 °F /  8.2 °C 44.0 °F /  6.7 °C 29.55 in /  1000.6 hPa WNW 2.5 mph /  4 km/h 7.0 mph /  11.3 km/h 90 % 0.02 in /  0.51 mm
21:21 46.7 °F /  8.2 °C 43.9 °F /  6.6 °C 29.55 in /  1000.6 hPa NW 2.8 mph /  4.5 km/h 10.4 mph /  16.7 km/h 90 % 0.02 in /  0.51 mm
21:26 46.6 °F /  8.1 °C 43.8 °F /  6.6 °C 29.54 in /  1000.2 hPa WNW 3.5 mph /  5.6 km/h 5.8 mph /  9.3 km/h 90 % 0.02 in /  0.51 mm
21:31 46.6 °F /  8.1 °C 44.1 °F /  6.7 °C 29.56 in /  1000.9 hPa WNW 1.6 mph /  2.6 km/h 3.5 mph /  5.6 km/h 91 % 0.02 in /  0.51 mm
21:36 46.6 °F /  8.1 °C 44.1 °F /  6.7 °C 29.55 in /  1000.6 hPa WNW 1.6 mph /  2.6 km/h 3.5 mph /  5.6 km/h 91 % 0.02 in /  0.51 mm
21:41 46.6 °F /  8.1 °C 44.1 °F /  6.7 °C 29.54 in /  1000.2 hPa NW 1.6 mph /  2.6 km/h 3.5 mph /  5.6 km/h 91 % 0.02 in /  0.51 mm
21:46 46.6 °F /  8.1 °C 44.1 °F /  6.7 °C 29.54 in /  1000.2 hPa West 2.4 mph /  3.9 km/h 4.6 mph /  7.4 km/h 91 % 0.01 in /  0.25 mm
21:51 46.5 °F /  8.1 °C 44.0 °F /  6.7 °C 29.53 in /  999.9 hPa NW 1.9 mph /  3.1 km/h 5.8 mph /  9.3 km/h 91 % 0.01 in /  0.25 mm
21:52 46.5 °F /  8.1 °C 44.0 °F /  6.7 °C 29.53 in /  999.9 hPa NW 1.7 mph /  2.7 km/h 5.8 mph /  9.3 km/h 91 % 0.01 in /  0.25 mm
21:57 46.5 °F /  8.1 °C 44.0 °F /  6.7 °C 29.55 in /  1000.6 hPa WSW 4.8 mph /  7.7 km/h 5.8 mph /  9.3 km/h 91 % 0.01 in /  0.25 mm
22:02 46.5 °F /  8.1 °C 44.0 °F /  6.7 °C 29.56 in /  1000.9 hPa SW 3.7 mph /  6 km/h 7.0 mph /  11.3 km/h 91 % 0.01 in /  0.25 mm
22:07 46.4 °F /  8 °C 43.9 °F /  6.6 °C 29.55 in /  1000.6 hPa WSW 2.7 mph /  4.3 km/h 10.4 mph /  16.7 km/h 91 % 0.01 in /  0.25 mm
22:12 46.3 °F /  7.9 °C 43.8 °F /  6.6 °C 29.55 in /  1000.6 hPa WSW 4.8 mph /  7.7 km/h 8.1 mph /  13 km/h 91 % 0.01 in /  0.25 mm
22:17 46.2 °F /  7.9 °C 43.7 °F /  6.5 °C 29.56 in /  1000.9 hPa West 5.1 mph /  8.2 km/h 6.0 mph /  9.7 km/h 91 % 0.01 in /  0.25 mm
22:22 46.1 °F /  7.8 °C 43.6 °F /  6.4 °C 29.54 in /  1000.2 hPa SW 4.6 mph /  7.4 km/h 9.2 mph /  14.8 km/h 91 % 0.00 in /  0 mm
22:27 46.0 °F /  7.8 °C 43.5 °F /  6.4 °C 29.53 in /  999.9 hPa West 3.0 mph /  4.8 km/h 5.8 mph /  9.3 km/h 91 % 0.00 in /  0 mm
22:32 45.9 °F /  7.7 °C 43.4 °F /  6.3 °C 29.55 in /  1000.6 hPa WSW 4.9 mph /  7.9 km/h 6.9 mph /  11.1 km/h 91 % 0.00 in /  0 mm
22:37 45.9 °F /  7.7 °C 43.4 °F /  6.3 °C 29.55 in /  1000.6 hPa WNW 0.9 mph /  1.4 km/h 3.5 mph /  5.6 km/h 91 % 0.00 in /  0 mm
22:42 45.7 °F /  7.6 °C 43.2 °F /  6.2 °C 29.57 in /  1001.2 hPa WSW 2.7 mph /  4.3 km/h 4.6 mph /  7.4 km/h 91 % 0.00 in /  0 mm
22:47 45.7 °F /  7.6 °C 43.2 °F /  6.2 °C 29.57 in /  1001.2 hPa WNW 3.9 mph /  6.3 km/h 6.9 mph /  11.1 km/h 91 % 0.00 in /  0 mm
22:52 45.7 °F /  7.6 °C 43.2 °F /  6.2 °C 29.58 in /  1001.6 hPa West 3.7 mph /  6 km/h 5.8 mph /  9.3 km/h 91 % 0.00 in /  0 mm
22:57 45.8 °F /  7.7 °C 43.3 °F /  6.3 °C 29.57 in /  1001.2 hPa West 2.8 mph /  4.5 km/h 6.9 mph /  11.1 km/h 91 % 0.00 in /  0 mm
23:02 45.9 °F /  7.7 °C 43.4 °F /  6.3 °C 29.58 in /  1001.6 hPa WNW 4.8 mph /  7.7 km/h 5.8 mph /  9.3 km/h 91 % 0.01 in /  0.25 mm
23:07 45.9 °F /  7.7 °C 43.4 °F /  6.3 °C 29.58 in /  1001.6 hPa West 2.4 mph /  3.9 km/h 3.5 mph /  5.6 km/h 91 % 0.01 in /  0.25 mm
23:12 45.9 °F /  7.7 °C 43.4 °F /  6.3 °C 29.58 in /  1001.6 hPa NW 4.2 mph /  6.8 km/h 9.2 mph /  14.8 km/h 91 % 0.01 in /  0.25 mm
23:17 45.8 °F /  7.7 °C 43.3 °F /  6.3 °C 29.57 in /  1001.2 hPa NW 5.1 mph /  8.2 km/h 11.5 mph /  18.5 km/h 91 % 0.01 in /  0.25 mm
23:23 45.7 °F /  7.6 °C 43.2 °F /  6.2 °C 29.57 in /  1001.2 hPa NNW 4.7 mph /  7.6 km/h 8.1 mph /  13 km/h 91 % 0.01 in /  0.25 mm
23:28 45.2 °F /  7.3 °C 42.4 °F /  5.8 °C 29.58 in /  1001.6 hPa NNW 4.3 mph /  6.9 km/h 6.9 mph /  11.1 km/h 90 % 0.01 in /  0.25 mm
23:33 44.9 °F /  7.2 °C 42.1 °F /  5.6 °C 29.59 in /  1001.9 hPa North 1.8 mph /  2.9 km/h 6.0 mph /  9.7 km/h 90 % 0.01 in /  0.25 mm
23:38 44.7 °F /  7.1 °C 42.2 °F /  5.7 °C 29.60 in /  1002.3 hPa North 1.3 mph /  2.1 km/h 4.6 mph /  7.4 km/h 91 % 0.01 in /  0.25 mm
23:43 44.5 °F /  6.9 °C 42.0 °F /  5.6 °C 29.61 in /  1002.6 hPa WNW 3.6 mph /  5.8 km/h 5.8 mph /  9.3 km/h 91 % 0.01 in /  0.25 mm
23:48 44.1 °F /  6.7 °C 41.1 °F /  5.1 °C 29.58 in /  1001.6 hPa North 5.5 mph /  8.9 km/h 9.2 mph /  14.8 km/h 89 % 0.01 in /  0.25 mm
23:53 43.7 °F /  6.5 °C 40.7 °F /  4.8 °C 29.59 in /  1001.9 hPa NNW 5.3 mph /  8.5 km/h 6.0 mph /  9.7 km/h 89 % 0.01 in /  0.25 mm
23:58 43.5 °F /  6.4 °C 40.2 °F /  4.6 °C 29.59 in /  1001.9 hPa NW 0.5 mph /  0.8 km/h 10.4 mph /  16.7 km/h 88 % 0.01 in /  0.25 mm
Crab Meadow Weather
Compliments of Weather Underground - 3 mb

Script developed by  Jim McMurry - jmcmurry@mwt.net Adapted for the template by  Wim van der Kuil - Leuven-Template.eu

Astronomy: A year on Venus is 225 days.